Time;durP1;ratioP1;P1;durP2;ratioP2;P2;SDS_P1;SDS_P2;PMS_P1;PMS_P2;Temp;Humidity;BMP_temperature;BMP_pressure;BME280_temperature;BME280_humidity;BME280_pressure;Samples;Min_cycle;Max_cycle;Signal;HPM_P1;HPM_P2
2022/05/07 00:01:29;;;;;;;23.60;15.03;;;;;;;8.69;77.80;99484.64;2262095;79;20950;-80
2022/05/07 00:04:29;;;;;;;22.23;15.27;;;;;;;8.59;77.79;99482.58;2262315;79;20981;-80
2022/05/07 00:07:29;;;;;;;31.27;16.23;;;;;;;8.51;78.12;99480.16;2262167;79;20978;-80
2022/05/07 00:10:30;;;;;;;28.23;15.77;;;;;;;8.48;78.22;99482.67;2261993;79;20985;-80
2022/05/07 00:13:30;;;;;;;32.50;16.63;;;;;;;8.39;78.10;99483.27;2262077;79;20950;-80
2022/05/07 00:19:50;;;;;;;24.83;15.30;;;;;;;8.23;78.20;99481.00;2262055;78;21115;-80
2022/05/07 00:22:50;;;;;;;24.73;15.93;;;;;;;8.17;78.17;99482.11;2262828;79;20945;-80
2022/05/07 00:25:51;;;;;;;25.07;15.33;;;;;;;8.07;77.89;99479.64;2261469;79;20910;-80
2022/05/07 00:28:51;;;;;;;23.80;15.83;;;;;;;7.98;78.01;99486.73;2261723;79;20978;-80
2022/05/07 00:31:51;;;;;;;21.90;15.93;;;;;;;7.93;78.22;99483.52;2261922;79;20939;-80
2022/05/07 00:34:52;;;;;;;20.00;14.97;;;;;;;7.87;78.20;99488.52;2262097;79;21037;-80
2022/05/07 00:37:52;;;;;;;19.23;13.67;;;;;;;7.80;78.22;99491.71;2260169;79;20977;-80
2022/05/07 00:40:53;;;;;;;22.63;15.10;;;;;;;7.73;78.08;99485.43;2261051;79;20959;-80
2022/05/07 00:43:53;;;;;;;23.93;15.53;;;;;;;7.63;78.09;99479.46;2260532;77;21017;-80
2022/05/07 00:46:53;;;;;;;23.67;15.53;;;;;;;7.56;78.33;99489.18;2260863;79;20987;-80
2022/05/07 00:49:54;;;;;;;23.93;15.23;;;;;;;7.54;78.20;99486.53;2261659;79;20975;-80
2022/05/07 00:52:54;;;;;;;25.40;15.07;;;;;;;7.50;78.27;99488.55;2261942;79;21282;-79
2022/05/07 00:55:54;;;;;;;25.77;16.03;;;;;;;7.50;78.34;99488.55;2261968;79;20904;-80
2022/05/07 00:58:56;;;;;;;25.00;16.10;;;;;;;7.42;78.23;99484.81;2262237;79;20896;-81
2022/05/07 01:01:55;;;;;;;21.23;14.83;;;;;;;7.39;78.46;99483.83;2262181;79;21314;-80
2022/05/07 01:04:56;;;;;;;20.80;15.70;;;;;;;7.40;78.70;99476.50;2261990;79;20903;-80
2022/05/07 01:07:56;;;;;;;21.10;14.70;;;;;;;7.30;78.22;99479.20;2262333;79;20911;-81
2022/05/07 01:10:56;;;;;;;19.53;14.23;;;;;;;7.25;78.40;99474.26;2262002;79;21267;-81
2022/05/07 01:13:57;;;;;;;22.43;14.47;;;;;;;7.17;78.35;99471.81;2262154;79;20931;-81
2022/05/07 01:16:57;;;;;;;23.40;14.90;;;;;;;7.12;78.43;99474.66;2261747;79;20931;-80
2022/05/07 01:19:58;;;;;;;53.77;16.90;;;;;;;7.06;78.79;99475.33;2261878;79;20919;-80
2022/05/07 01:23:00;;;;;;;61.70;16.53;;;;;;;7.05;78.96;99483.05;2262018;79;20943;-79
2022/05/07 01:25:59;;;;;;;19.07;14.37;;;;;;;7.01;78.93;99472.56;2262033;79;21287;-79
2022/05/07 01:28:59;;;;;;;18.13;13.57;;;;;;;6.97;78.89;99477.17;2262238;79;20951;-80
2022/05/07 01:31:59;;;;;;;21.30;14.13;;;;;;;6.92;79.04;99483.88;2262334;79;20903;-81
2022/05/07 01:35:00;;;;;;;21.37;14.73;;;;;;;6.89;79.01;99481.59;2262001;79;21413;-81
2022/05/07 01:38:00;;;;;;;19.57;14.90;;;;;;;6.88;78.92;99479.41;2262050;79;20888;-81
2022/05/07 01:41:00;;;;;;;18.53;13.93;;;;;;;6.81;78.63;99473.94;2261874;79;20994;-81
2022/05/07 01:44:01;;;;;;;18.70;13.43;;;;;;;6.81;78.63;99473.94;2255723;78;21359;-81
2022/05/07 01:50:20;;;;;;;19.23;14.43;;;;;;;6.70;78.76;99474.84;2255505;79;21393;-82
2022/05/07 01:53:22;;;;;;;16.53;13.50;;;;;;;6.64;78.68;99464.23;2255414;79;20923;-81
2022/05/07 01:56:21;;;;;;;20.10;15.03;;;;;;;6.59;78.79;99467.07;2255242;79;20955;-81
2022/05/07 01:59:21;;;;;;;20.80;14.93;;;;;;;6.56;78.92;99463.06;2254208;79;21341;-81
2022/05/07 02:02:22;;;;;;;21.03;14.13;;;;;;;6.53;79.01;99463.84;2255038;79;20958;-80
2022/05/07 02:05:22;;;;;;;20.03;13.50;;;;;;;6.52;79.09;99459.89;2254853;79;20973;-80
2022/05/07 02:08:23;;;;;;;17.83;13.30;;;;;;;6.52;79.29;99459.48;2253837;79;21011;-80
2022/05/07 02:11:23;;;;;;;48.43;15.30;;;;;;;6.53;79.07;99456.47;2254070;79;20942;-81
2022/05/07 02:14:24;;;;;;;25.10;15.90;;;;;;;6.49;78.99;99459.77;2255469;79;20955;-80
2022/05/07 02:17:24;;;;;;;22.33;15.97;;;;;;;6.43;78.87;99460.84;2255464;79;21272;-80
2022/05/07 02:20:24;;;;;;;26.57;15.53;;;;;;;6.38;78.91;99457.66;2255076;79;20986;-80
2022/05/07 02:23:25;;;;;;;72.40;17.97;;;;;;;6.34;78.84;99463.55;2255631;79;20904;-81
2022/05/07 02:26:25;;;;;;;25.43;16.10;;;;;;;6.36;79.24;99455.42;2255486;79;20951;-81
2022/05/07 02:29:25;;;;;;;21.73;14.77;;;;;;;6.36;79.27;99463.20;2255502;79;20892;-81
2022/05/07 02:32:26;;;;;;;23.10;13.83;;;;;;;6.33;79.11;99459.19;2255639;79;20932;-81
2022/05/07 02:35:26;;;;;;;23.30;14.17;;;;;;;6.33;79.12;99461.78;2255253;78;21307;-81
2022/05/07 02:38:27;;;;;;;22.10;14.80;;;;;;;6.31;79.05;99469.92;2255675;78;20935;-81
2022/05/07 02:44:46;;;;;;;19.73;13.80;;;;;;;6.27;78.97;99470.62;2255439;79;20908;-81
2022/05/07 02:47:47;;;;;;;20.33;15.23;;;;;;;6.23;78.60;99481.70;2255528;79;20911;-81
2022/05/07 02:50:47;;;;;;;23.13;16.37;;;;;;;6.21;78.64;99480.76;2255355;79;21330;-81
2022/05/07 02:53:48;;;;;;;21.73;15.33;;;;;;;6.25;79.40;99485.23;2255629;79;20971;-82
2022/05/07 02:56:48;;;;;;;56.77;18.73;;;;;;;6.26;78.77;99486.12;2255483;79;20915;-82
2022/05/07 02:59:48;;;;;;;27.43;17.03;;;;;;;6.21;78.78;99489.83;2255466;79;20892;-81
2022/05/07 03:02:49;;;;;;;28.83;17.10;;;;;;;6.17;78.83;99484.05;2255567;79;20907;-81
2022/05/07 03:05:49;;;;;;;25.80;16.60;;;;;;;6.16;78.90;99489.18;2255403;79;20895;-81
2022/05/07 03:08:49;;;;;;;25.83;16.53;;;;;;;6.16;78.83;99490.47;2255540;79;20918;-81
2022/05/07 03:11:50;;;;;;;24.60;15.87;;;;;;;6.13;78.64;99492.95;2255423;79;20958;-81
2022/05/07 03:14:50;;;;;;;34.70;17.90;;;;;;;6.12;78.72;99494.66;2255467;79;20957;-81
2022/05/07 03:17:51;;;;;;;23.87;17.30;;;;;;;6.13;78.88;99495.12;2255497;79;20965;-80
2022/05/07 03:20:51;;;;;;;23.27;15.67;;;;;;;6.20;79.01;99493.25;2255115;79;20959;-81
2022/05/07 03:23:51;;;;;;;42.40;16.20;;;;;;;6.25;78.86;99493.02;2255662;79;20948;-80
2022/05/07 03:26:52;;;;;;;23.80;16.20;;;;;;;6.30;78.45;99491.90;2255387;79;21290;-80
2022/05/07 03:29:52;;;;;;;24.43;15.27;;;;;;;6.30;78.28;99486.71;2254842;79;20994;-81
2022/05/07 03:32:53;;;;;;;26.33;16.23;;;;;;;6.29;78.24;99487.12;2255270;79;21338;-80
2022/05/07 03:35:53;;;;;;;23.03;15.63;;;;;;;6.33;78.43;99492.91;2255093;79;20967;-80
2022/05/07 03:38:53;;;;;;;32.07;20.17;;;;;;;6.44;78.47;99489.84;2254987;79;20892;-80
2022/05/07 03:41:55;;;;;;;37.80;18.57;;;;;;;6.49;78.40;99497.37;2252769;78;21483;-81
2022/05/07 03:44:55;;;;;;;34.10;21.50;;;;;;;6.54;78.29;99494.14;2254590;79;20978;-81
2022/05/07 03:47:55;;;;;;;36.70;21.23;;;;;;;6.59;78.21;99500.80;2254649;79;20918;-81
2022/05/07 03:50:56;;;;;;;37.40;20.17;;;;;;;6.63;78.19;99500.97;2253964;79;20971;-81
2022/05/07 03:53:56;;;;;;;27.80;18.00;;;;;;;6.70;78.36;99509.86;2253470;79;21449;-81
2022/05/07 03:56:57;;;;;;;26.57;17.87;;;;;;;6.75;78.35;99508.33;2254952;79;21012;-81
2022/05/07 03:59:57;;;;;;;25.87;17.07;;;;;;;6.82;78.15;99510.32;2255236;79;20986;-82
2022/05/07 04:02:57;;;;;;;23.27;16.17;;;;;;;6.90;78.13;99511.91;2255259;79;20927;-81
2022/05/07 04:05:59;;;;;;;22.17;16.20;;;;;;;6.97;78.21;99516.52;2255101;79;20975;-81
2022/05/07 04:09:01;;;;;;;25.57;16.97;;;;;;;7.07;78.27;99518.63;2255115;79;20876;-81
2022/05/07 04:12:01;;;;;;;25.90;16.57;;;;;;;7.14;78.34;99514.54;2254349;79;20939;-81
2022/05/07 04:15:02;;;;;;;23.77;16.57;;;;;;;7.26;78.39;99504.59;2253741;79;21295;-79
2022/05/07 04:18:02;;;;;;;24.83;15.60;;;;;;;7.47;78.71;99518.73;2254836;79;20907;-81
2022/05/07 04:21:04;;;;;;;26.50;16.10;;;;;;;7.68;78.79;99519.47;2254790;79;20955;-81
2022/05/07 04:24:03;;;;;;;21.97;16.30;;;;;;;7.87;78.55;99519.70;2254928;79;20895;-80
2022/05/07 04:27:04;;;;;;;25.37;15.70;;;;;;;8.08;78.50;99521.70;2253307;79;20974;-81
2022/05/07 04:30:04;;;;;;;29.20;16.03;;;;;;;8.28;78.79;99512.82;2253110;79;20935;-81
2022/05/07 04:33:06;;;;;;;27.60;15.37;;;;;;;8.51;78.58;99517.89;2253387;79;20974;-81
2022/05/07 04:36:05;;;;;;;22.60;14.33;;;;;;;8.74;78.29;99518.61;2252985;79;21342;-82
2022/05/07 04:39:05;;;;;;;22.10;14.97;;;;;;;8.88;78.33;99515.58;2252490;79;20946;-81
2022/05/07 04:42:06;;;;;;;27.00;15.10;;;;;;;9.03;78.65;99519.46;2252365;78;20962;-81
2022/05/07 04:45:06;;;;;;;27.87;15.53;;;;;;;9.22;78.47;99515.23;2256428;79;21326;-81
2022/05/07 04:48:06;;;;;;;22.60;15.77;;;;;;;9.48;78.69;99519.43;2255758;79;20930;-81
2022/05/07 04:51:07;;;;;;;21.23;14.80;;;;;;;9.72;78.46;99517.92;2255834;79;20967;-82
2022/05/07 04:54:07;;;;;;;21.90;15.47;;;;;;;10.01;78.19;99523.88;2256486;79;20970;-81
2022/05/07 04:57:08;;;;;;;19.77;15.80;;;;;;;10.31;78.36;99516.36;2256400;79;21022;-81
2022/05/07 05:00:08;;;;;;;28.83;16.80;;;;;;;10.60;78.12;99517.94;2256583;79;20947;-82
2022/05/07 05:03:10;;;;;;;28.90;18.10;;;;;;;10.90;77.72;99518.14;2256411;79;21377;-81
2022/05/07 05:06:09;;;;;;;25.37;18.90;;;;;;;11.24;77.03;99519.29;2258130;79;20900;-80
2022/05/07 05:09:10;;;;;;;29.80;21.03;;;;;;;11.57;75.77;99526.05;2256786;79;20939;-81
2022/05/07 05:12:10;;;;;;;30.40;19.75;;;;;;;11.84;74.55;99526.58;2256001;79;21378;-79
2022/05/07 05:15:10;;;;;;;28.83;19.52;;;;;;;12.21;73.45;99532.47;2255973;79;20994;-81
2022/05/07 05:18:13;;;;;;;26.25;18.55;;;;;;;12.43;71.93;99531.52;2256559;79;20911;-81
2022/05/07 05:21:11;;;;;;;30.75;19.90;;;;;;;12.55;71.27;99530.81;2256222;79;20981;-81
2022/05/07 05:24:13;;;;;;;35.05;20.17;;;;;;;12.69;69.89;99532.33;2257869;79;20995;-81
2022/05/07 05:27:14;;;;;;;33.00;19.27;;;;;;;12.75;68.62;99529.36;2238567;79;20909;-81
2022/05/07 05:30:14;;;;;;;30.72;20.15;;;;;;;12.84;68.35;99528.61;2258181;79;20951;-81
2022/05/07 05:33:14;;;;;;;29.55;18.48;;;;;;;12.98;68.66;99536.66;2258485;79;21279;-82
2022/05/07 05:36:15;;;;;;;30.20;20.08;;;;;;;13.12;67.69;99532.50;2257649;79;21002;-82
2022/05/07 05:39:15;;;;;;;27.62;20.25;;;;;;;13.22;67.50;99534.84;2258666;79;20891;-81
2022/05/07 05:42:16;;;;;;;29.40;20.30;;;;;;;13.42;67.35;99535.07;2258434;79;21009;-80
2022/05/07 05:45:17;;;;;;;23.62;19.07;;;;;;;13.57;67.07;99542.67;2201474;81;20960;-81
2022/05/07 05:48:16;;;;;;;23.15;17.35;;;;;;;13.70;67.16;99541.06;2202362;81;20929;-80
2022/05/07 05:51:17;;;;;;;23.22;18.15;;;;;;;13.76;66.01;99541.13;2201919;81;21004;-80
2022/05/07 05:54:17;;;;;;;21.42;15.55;;;;;;;13.79;66.09;99545.52;2202366;81;21102;-82
2022/05/07 05:57:18;;;;;;;22.02;16.90;;;;;;;13.87;65.78;99547.80;2202028;81;20971;-81
2022/05/07 06:00:18;;;;;;;20.55;14.87;;;;;;;13.82;65.87;99551.68;2202096;81;20900;-81
2022/05/07 06:03:19;;;;;;;21.17;15.48;;;;;;;13.79;66.29;99552.97;2201803;80;20972;-81
2022/05/07 06:06:19;;;;;;;19.55;15.28;;;;;;;13.72;66.38;99547.20;2200978;81;21003;-81
2022/05/07 06:09:21;;;;;;;22.25;14.05;;;;;;;13.73;66.27;99550.28;2201657;81;20905;-81
2022/05/07 06:12:20;;;;;;;26.48;15.45;;;;;;;13.80;66.36;99549.91;2201196;81;20984;-81
2022/05/07 06:15:20;;;;;;;21.25;14.70;;;;;;;14.16;65.87;99542.84;2201170;81;21034;-83
2022/05/07 06:18:21;;;;;;;20.92;14.47;;;;;;;14.47;65.08;99547.50;2201123;81;20982;-82
2022/05/07 06:21:21;;;;;;;14.83;12.88;;;;;;;14.79;65.00;99541.61;2201360;81;21011;-81
2022/05/07 06:27:40;;;;;;;17.00;11.90;;;;;;;15.32;63.53;99547.13;2202232;81;20984;-81
2022/05/07 06:30:42;;;;;;;15.83;12.28;;;;;;;15.63;62.68;99546.86;2202053;81;20959;-82
2022/05/07 06:33:42;;;;;;;17.17;11.43;;;;;;;15.90;61.89;99545.60;2201893;81;20971;-81
2022/05/07 06:36:43;;;;;;;12.43;10.08;;;;;;;16.08;61.56;99543.86;2202144;81;20968;-81
2022/05/07 06:39:43;;;;;;;15.63;9.43;;;;;;;16.31;61.26;99544.75;2202259;81;20928;-82
2022/05/07 06:42:45;;;;;;;13.53;8.48;;;;;;;16.69;60.42;99535.55;2206468;77;21327;-82
2022/05/07 06:45:44;;;;;;;13.60;8.70;;;;;;;16.80;59.45;99543.00;2261587;79;20948;-81
2022/05/07 06:48:44;;;;;;;11.28;8.40;;;;;;;17.00;59.37;99538.12;2261528;79;21195;-81
2022/05/07 06:51:45;;;;;;;10.05;7.37;;;;;;;17.20;58.36;99535.84;2260577;79;21424;-82
2022/05/07 06:54:45;;;;;;;8.75;6.85;;;;;;;17.36;57.17;99536.69;2261497;79;20946;-81
2022/05/07 06:57:46;;;;;;;7.17;5.70;;;;;;;17.55;56.06;99533.95;2261531;79;20926;-81
2022/05/07 07:00:46;;;;;;;9.95;6.53;;;;;;;17.82;55.68;99537.34;2261674;79;20947;-81
2022/05/07 07:03:46;;;;;;;7.78;5.95;;;;;;;18.07;53.74;99538.50;2260806;79;20907;-82
2022/05/07 07:06:47;;;;;;;7.17;6.00;;;;;;;18.16;53.96;99535.78;2260026;79;21338;-83
2022/05/07 07:09:47;;;;;;;6.13;5.07;;;;;;;18.28;53.74;99539.69;2261128;79;21184;-83
2022/05/07 07:12:48;;;;;;;10.45;5.35;;;;;;;18.37;50.28;99535.64;2261827;79;21323;-82
2022/05/07 07:15:48;;;;;;;23.30;4.50;;;;;;;18.44;51.82;99528.09;2261321;79;20967;-83
2022/05/07 07:18:48;;;;;;;6.42;4.05;;;;;;;18.60;48.75;99536.76;2261096;79;20911;-82
2022/05/07 07:21:49;;;;;;;7.22;4.10;;;;;;;18.73;47.55;99537.09;2261317;79;21354;-83
2022/05/07 07:24:49;;;;;;;8.85;4.08;;;;;;;18.68;47.75;99534.07;2262111;79;20892;-82
2022/05/07 07:27:50;;;;;;;8.45;4.10;;;;;;;18.69;46.33;99543.31;2261971;79;20903;-82
2022/05/07 07:30:51;;;;;;;6.33;3.90;;;;;;;18.68;46.15;99538.03;2261509;79;20923;-82
2022/05/07 07:33:50;;;;;;;6.15;4.10;;;;;;;18.68;46.39;99538.03;2261182;79;20942;-82
2022/05/07 07:36:51;;;;;;;5.75;3.80;;;;;;;18.83;46.82;99536.56;2261075;79;21380;-80
2022/05/07 07:39:51;;;;;;;5.42;4.12;;;;;;;18.97;44.68;99539.93;2261310;79;20963;-83
2022/05/07 07:42:52;;;;;;;20.45;4.70;;;;;;;19.25;44.25;99544.94;2260471;78;21369;-83
2022/05/07 07:49:11;;;;;;;9.75;3.47;;;;;;;19.73;43.78;99540.35;2261139;78;21054;-82
2022/05/07 07:52:12;;;;;;;7.65;4.25;;;;;;;19.87;42.26;99537.95;2261755;79;21061;-82
2022/05/07 07:55:12;;;;;;;7.10;4.35;;;;;;;20.09;41.34;99541.19;2261540;79;20978;-83
2022/05/07 07:58:12;;;;;;;6.33;4.15;;;;;;;20.23;42.43;99538.75;2261968;79;20923;-83
2022/05/07 08:01:13;;;;;;;8.40;4.67;;;;;;;20.61;42.00;99536.80;2262479;79;20896;-82
2022/05/07 08:04:13;;;;;;;8.23;4.83;;;;;;;20.74;40.27;99537.45;2262000;79;20955;-83
2022/05/07 08:13:54;;;;;;;6.08;3.83;;;;;;;20.75;37.92;99544.51;2260462;78;21066;-83
2022/05/07 08:16:55;;;;;;;4.33;3.20;;;;;;;20.46;38.74;99544.15;2259721;79;20970;-82
2022/05/07 08:19:55;;;;;;;6.55;4.30;;;;;;;19.90;38.96;99544.08;2258921;78;20989;-81
2022/05/07 08:22:56;;;;;;;3.37;3.08;;;;;;;19.84;39.50;99536.67;2259227;79;20985;-82
2022/05/07 08:25:56;;;;;;;7.35;3.83;;;;;;;20.11;39.70;99532.77;2261035;79;20883;-82
2022/05/07 08:28:57;;;;;;;7.75;3.52;;;;;;;20.48;40.32;99540.56;2261369;79;21414;-81
2022/05/07 08:31:57;;;;;;;5.47;3.45;;;;;;;20.78;39.24;99537.82;2259500;79;20990;-82
2022/05/07 08:35:00;;;;;;;23.65;3.95;;;;;;;20.90;37.05;99540.28;2260815;79;20963;-82
2022/05/07 08:38:01;;;;;;;6.85;2.87;;;;;;;20.89;37.87;99537.66;2260014;79;20958;-82
2022/05/07 08:41:01;;;;;;;3.35;2.45;;;;;;;21.01;36.60;99541.40;2260677;79;20974;-82
2022/05/07 08:44:01;;;;;;;6.62;3.10;;;;;;;21.27;36.30;99538.26;2258150;78;20981;-82
2022/05/07 08:47:02;;;;;;;2.80;2.25;;;;;;;21.61;36.86;99536.64;2253539;79;20974;-81
2022/05/07 08:50:02;;;;;;;4.35;2.37;;;;;;;21.52;36.41;99531.52;2252794;79;21015;-83
2022/05/07 08:53:03;;;;;;;3.25;2.50;;;;;;;21.68;35.96;99540.06;2253569;79;20961;-83
2022/05/07 08:56:03;;;;;;;3.52;2.08;;;;;;;21.71;35.36;99540.45;2253466;79;20978;-82
2022/05/07 08:59:03;;;;;;;4.40;2.22;;;;;;;21.29;35.84;99536.45;2253483;78;20962;-82
2022/05/07 09:02:04;;;;;;;3.85;2.37;;;;;;;21.15;36.10;99545.11;2254044;79;20997;-84
2022/05/07 09:05:05;;;;;;;3.25;2.22;;;;;;;21.20;35.75;99539.25;2254820;79;20907;-82
2022/05/07 09:08:05;;;;;;;3.30;2.77;;;;;;;21.31;35.68;99535.96;2253443;79;20947;-82
2022/05/07 09:11:05;;;;;;;3.12;2.55;;;;;;;21.74;35.36;99541.71;2253716;78;20918;-82
2022/05/07 09:14:05;;;;;;;3.75;2.70;;;;;;;21.95;35.13;99535.91;2254268;79;20968;-82
2022/05/07 09:17:06;;;;;;;2.10;1.90;;;;;;;22.37;34.22;99539.80;2255153;79;20943;-82
2022/05/07 09:20:06;;;;;;;4.72;2.40;;;;;;;22.80;33.99;99531.19;2254857;79;20900;-82
2022/05/07 09:23:07;;;;;;;2.60;2.17;;;;;;;22.86;33.89;99528.83;2254556;79;20986;-82
2022/05/07 09:26:09;;;;;;;4.33;2.25;;;;;;;22.90;33.36;99530.48;2254089;79;20930;-82
2022/05/07 09:29:10;;;;;;;2.50;2.25;;;;;;;22.48;33.02;99543.06;2224380;79;20919;-83
2022/05/07 09:32:10;;;;;;;6.30;2.40;;;;;;;22.02;34.27;99544.16;2255409;79;20916;-84
2022/05/07 09:38:30;;;;;;;3.02;2.17;;;;;;;21.61;35.33;99537.09;2254201;79;20959;-83
2022/05/07 09:41:29;;;;;;;5.55;2.35;;;;;;;21.58;34.58;99535.37;2253797;79;20935;-82
2022/05/07 09:44:30;;;;;;;2.98;2.40;;;;;;;21.58;33.59;99534.05;2254667;79;20943;-82
2022/05/07 09:47:30;;;;;;;3.80;2.40;;;;;;;21.60;34.48;99529.58;2255092;79;20946;-84
2022/05/07 10:00:15;;;;;;;4.22;3.05;;;;;;;22.27;34.94;99515.22;2255280;79;20935;-81
2022/05/07 10:03:15;;;;;;;4.65;2.22;;;;;;;22.68;33.97;99510.20;2254317;79;21350;-82
2022/05/07 10:06:15;;;;;;;2.33;2.12;;;;;;;22.93;32.60;99509.56;2255312;79;20888;-82
2022/05/07 10:09:16;;;;;;;2.55;2.35;;;;;;;22.98;32.45;99502.32;2253993;79;20947;-82
2022/05/07 10:12:16;;;;;;;4.12;2.62;;;;;;;23.10;32.92;99501.97;2255907;79;20904;-81
2022/05/07 10:15:17;;;;;;;3.67;2.25;;;;;;;23.31;33.36;99496.48;2255941;79;20971;-81
2022/05/07 10:18:17;;;;;;;3.50;2.50;;;;;;;23.44;32.87;99505.42;2255365;79;20880;-82
2022/05/07 10:21:17;;;;;;;3.27;2.30;;;;;;;23.35;31.74;99499.47;2254485;79;21399;-82
2022/05/07 10:24:18;;;;;;;3.30;2.37;;;;;;;23.24;32.59;99487.80;2253355;79;20991;-82
2022/05/07 10:27:20;;;;;;;3.58;2.33;;;;;;;23.17;31.25;99492.89;2254620;79;20989;-82
2022/05/07 10:30:21;;;;;;;3.12;2.33;;;;;;;23.14;31.96;99488.98;2253610;79;21322;-82
2022/05/07 10:33:19;;;;;;;3.33;2.55;;;;;;;23.41;31.98;99486.88;2253720;79;20911;-81
2022/05/07 10:36:20;;;;;;;6.58;2.77;;;;;;;23.65;31.60;99489.74;2253319;79;21349;-82
2022/05/07 10:39:20;;;;;;;4.05;2.22;;;;;;;23.36;32.52;99483.44;2254882;79;20966;-82
2022/05/07 10:42:22;;;;;;;3.10;2.30;;;;;;;22.46;32.88;99499.22;2255385;79;20919;-82
2022/05/07 10:45:21;;;;;;;3.92;2.33;;;;;;;21.82;34.80;99492.80;2255141;79;21331;-82
2022/05/07 10:48:21;;;;;;;3.42;2.20;;;;;;;21.34;34.47;99489.42;2254826;79;21019;-82
2022/05/07 10:51:21;;;;;;;3.40;2.52;;;;;;;21.57;34.19;99492.45;2253207;79;20962;-82
2022/05/07 10:54:22;;;;;;;2.30;2.12;;;;;;;22.01;33.96;99483.92;2253501;79;21425;-81
2022/05/07 10:57:22;;;;;;;3.50;2.80;;;;;;;22.25;32.57;99474.05;2252568;79;20998;-81
2022/05/07 11:00:23;;;;;;;1.80;1.70;;;;;;;22.49;31.46;99475.19;2252664;79;21006;-80
2022/05/07 11:03:23;;;;;;;7.00;2.60;;;;;;;22.62;31.88;99466.45;2253167;79;20970;-82
2022/05/07 11:06:23;;;;;;;4.25;2.25;;;;;;;22.93;31.72;99466.97;2254006;79;20951;-83
2022/05/07 11:09:24;;;;;;;8.20;2.00;;;;;;;23.27;31.40;99462.41;2253821;79;21037;-82
2022/05/07 11:12:26;;;;;;;2.72;2.25;;;;;;;23.58;31.20;99458.41;2255052;78;21302;-82
2022/05/07 11:15:25;;;;;;;3.62;2.30;;;;;;;23.91;29.38;99454.25;2255116;79;20978;-83
2022/05/07 11:18:25;;;;;;;3.22;2.20;;;;;;;24.09;29.90;99450.52;2254510;79;21365;-82
2022/05/07 11:21:26;;;;;;;2.50;2.17;;;;;;;24.26;29.29;99450.41;2254329;78;21034;-82
2022/05/07 11:24:26;;;;;;;3.33;2.30;;;;;;;24.23;28.77;99451.84;2254346;79;20950;-84
2022/05/07 11:27:29;;;;;;;2.90;2.27;;;;;;;24.23;29.12;99453.19;2254627;79;21010;-83
2022/05/07 11:30:27;;;;;;;10.10;2.30;;;;;;;23.93;29.61;99449.28;2254713;79;20919;-83
2022/05/07 11:33:27;;;;;;;2.37;2.17;;;;;;;23.83;30.55;99446.05;2255613;79;20907;-82
2022/05/07 11:36:27;;;;;;;4.05;2.62;;;;;;;23.56;29.69;99449.59;2255448;79;20907;-82
2022/05/07 11:39:28;;;;;;;3.58;2.25;;;;;;;23.40;30.77;99446.92;2255716;79;20931;-83
2022/05/07 11:42:28;;;;;;;3.95;2.35;;;;;;;23.22;30.16;99451.02;2255778;78;20939;-84
2022/05/07 11:45:35;;;;;;;6.20;2.60;;;;;;;22.95;30.83;99435.85;2256207;77;20955;-84
2022/05/07 11:48:29;;;;;;;2.87;2.33;;;;;;;23.01;30.76;99443.20;2255659;79;20966;-83
2022/05/07 11:51:30;;;;;;;4.42;2.17;;;;;;;22.80;30.57;99435.84;2255640;79;20923;-82
2022/05/07 11:54:30;;;;;;;3.15;2.30;;;;;;;23.07;30.71;99432.83;2255163;79;20947;-81
2022/05/07 11:57:30;;;;;;;4.53;2.27;;;;;;;23.36;30.34;99429.30;2255968;79;20931;-82
2022/05/07 12:00:31;;;;;;;4.62;2.37;;;;;;;23.43;28.72;99429.55;2255662;79;20903;-82
2022/05/07 12:03:31;;;;;;;4.10;2.12;;;;;;;23.21;29.46;99429.30;2254293;79;20970;-83
2022/05/07 12:06:32;;;;;;;2.77;2.17;;;;;;;23.38;28.89;99425.66;2253267;79;20987;-83
2022/05/07 12:09:33;;;;;;;3.50;2.30;;;;;;;23.57;28.72;99429.14;2253992;79;20935;-83
2022/05/07 12:12:32;;;;;;;4.25;2.20;;;;;;;23.59;28.68;99424.64;2254973;79;20969;-82
2022/05/07 12:18:52;;;;;;;3.50;2.67;;;;;;;23.28;30.96;99413.55;2253562;79;20967;-82
2022/05/07 12:31:43;;;;;;;4.62;2.37;;;;;;;23.24;29.26;99402.57;2254049;79;20978;-83
2022/05/07 12:34:43;;;;;;;5.80;2.50;;;;;;;23.23;29.70;99402.16;2255846;79;20978;-83
2022/05/07 12:37:43;;;;;;;5.28;2.50;;;;;;;23.34;29.36;99401.83;2256030;79;21330;-83
2022/05/07 12:40:44;;;;;;;3.00;2.62;;;;;;;23.48;29.38;99403.17;2255764;79;20907;-83
2022/05/07 12:43:44;;;;;;;3.77;2.58;;;;;;;23.61;29.19;99398.81;2255642;79;21005;-83
2022/05/07 12:46:44;;;;;;;4.95;2.60;;;;;;;23.82;29.39;99391.45;2254920;79;21373;-83
2022/05/07 12:49:45;;;;;;;4.85;4.15;;;;;;;23.98;29.18;99387.34;2254811;79;20946;-83
2022/05/07 12:52:45;;;;;;;2.50;2.30;;;;;;;24.25;28.92;99386.85;2255730;79;21006;-83
2022/05/07 12:55:46;;;;;;;2.92;2.25;;;;;;;24.04;28.34;99392.93;2255837;79;20955;-83
2022/05/07 12:58:47;;;;;;;6.58;2.40;;;;;;;24.01;29.19;99387.70;2255746;79;20893;-82
2022/05/07 13:01:46;;;;;;;3.58;2.55;;;;;;;24.02;28.42;99394.78;2255564;79;21264;-81
2022/05/07 13:04:47;;;;;;;2.90;2.70;;;;;;;23.82;28.92;99391.45;2255840;79;20954;-81
2022/05/07 13:07:47;;;;;;;4.47;2.75;;;;;;;23.87;29.07;99388.63;2255986;79;20935;-83
2022/05/07 13:10:48;;;;;;;3.10;2.90;;;;;;;24.17;29.04;99379.58;2255929;79;20943;-81
2022/05/07 13:13:48;;;;;;;3.60;2.45;;;;;;;24.33;29.11;99378.64;2255699;79;20896;-82
2022/05/07 13:16:49;;;;;;;4.65;2.70;;;;;;;24.49;29.25;99378.50;2255799;79;20899;-82
2022/05/07 13:19:49;;;;;;;2.52;2.33;;;;;;;24.75;28.10;99383.75;2255766;79;21295;-82
2022/05/07 13:22:49;;;;;;;3.08;2.50;;;;;;;24.75;28.10;99383.75;2255682;79;20990;-80
2022/05/07 13:25:50;;;;;;;2.30;2.10;;;;;;;24.61;27.96;99377.19;2255848;79;20900;-84
2022/05/07 13:28:50;;;;;;;3.62;2.87;;;;;;;24.68;28.09;99380.03;2255977;79;20864;-83
2022/05/07 13:31:51;;;;;;;3.85;2.98;;;;;;;24.39;27.98;99381.09;2255982;79;20899;-81
2022/05/07 13:34:51;;;;;;;3.85;3.08;;;;;;;24.21;27.33;99375.02;2255539;79;21071;-83
2022/05/07 13:37:51;;;;;;;3.67;2.40;;;;;;;23.97;28.60;99366.94;2255860;79;21224;-82
2022/05/07 13:40:52;;;;;;;4.72;2.52;;;;;;;23.89;28.44;99373.45;2255014;79;20978;-82
2022/05/07 13:43:52;;;;;;;3.62;2.60;;;;;;;23.98;27.70;99370.02;2255763;79;20974;-82
2022/05/07 13:46:52;;;;;;;2.90;2.55;;;;;;;23.72;28.24;99363.36;2249780;77;21010;-82
2022/05/07 13:49:53;;;;;;;3.15;2.42;;;;;;;23.73;28.94;99364.64;2249310;79;20860;-83
2022/05/07 13:52:53;;;;;;;2.47;2.27;;;;;;;23.45;29.83;99364.64;2247832;79;21018;-82
2022/05/07 13:55:54;;;;;;;3.40;2.52;;;;;;;22.94;30.81;99359.11;2247829;79;20916;-82
2022/05/07 13:58:54;;;;;;;5.30;2.62;;;;;;;22.52;30.98;99361.17;2247788;79;20966;-83
2022/05/07 14:01:55;;;;;;;7.92;3.20;;;;;;;22.63;31.01;99363.10;2247717;79;20908;-82
2022/05/07 14:04:55;;;;;;;3.98;2.65;;;;;;;22.63;30.85;99360.44;2247549;79;21007;-83
2022/05/07 14:07:55;;;;;;;5.83;2.85;;;;;;;22.46;30.79;99361.34;2247652;79;20899;-82
2022/05/07 14:10:56;;;;;;;33.20;4.28;;;;;;;22.62;30.77;99360.48;2247535;79;21276;-81
2022/05/07 14:13:56;;;;;;;3.02;2.67;;;;;;;22.86;30.26;99350.48;2247728;79;21346;-85
2022/05/07 14:16:57;;;;;;;4.08;3.25;;;;;;;22.74;30.38;99361.00;2249568;79;20940;-82
2022/05/07 14:19:58;;;;;;;8.05;2.70;;;;;;;22.62;30.41;99357.83;2248819;79;21314;-82
2022/05/07 14:22:57;;;;;;;3.60;3.10;;;;;;;22.39;31.23;99361.10;2248964;79;21331;-81
2022/05/07 14:25:58;;;;;;;4.97;4.47;;;;;;;22.52;31.16;99355.39;2248829;79;20900;-81
2022/05/07 14:28:58;;;;;;;4.55;4.08;;;;;;;22.55;30.97;99351.81;2249215;79;20916;-82
2022/05/07 14:31:59;;;;;;;3.67;2.90;;;;;;;22.62;30.78;99346.72;2249108;79;21284;-82
2022/05/07 14:34:59;;;;;;;4.12;3.12;;;;;;;22.83;30.46;99350.11;2248843;79;20930;-81
2022/05/07 14:37:59;;;;;;;2.60;2.40;;;;;;;22.98;30.38;99341.25;2248694;79;20895;-82
2022/05/07 14:41:00;;;;;;;4.00;2.70;;;;;;;22.80;30.59;99340.89;2249511;79;21283;-84
2022/05/07 14:44:00;;;;;;;4.80;2.70;;;;;;;22.61;30.70;99337.45;2249158;79;20868;-81
2022/05/07 14:47:01;;;;;;;3.98;2.60;;;;;;;22.41;30.95;99336.66;2248583;77;20931;-81
2022/05/07 14:50:01;;;;;;;3.98;2.37;;;;;;;22.35;31.03;99338.16;2248551;79;21319;-80
2022/05/07 14:53:02;;;;;;;4.20;2.62;;;;;;;22.54;31.00;99338.06;2248058;79;20967;-81